ETD44S OMDB-OEDF
Flight info
| Callsign | ETD44S |
|---|---|
| Flight time | 1h 1m |
| Altitude | 26000 |
| Route | NABIX P699 ORMID Y856 NARMI J735 KFA |
| Aircraft | A388/J-SADE2E3FGHIJ3J4J5M1RWXY/LB1D1 |
Departure
| Time | 2026-04-24 15:03 |
|---|---|
| Airport | Dubai International Airport (OMDB) |
Arrival
| Time | 2026-04-24 16:04 |
|---|---|
| Airport | King Fahd International Airport (OEDF) |
| Time | Latitude | Longitude | Altitude | Speed | Heading |
|---|---|---|---|---|---|
| 2026-04-24 14:26 | 25.24288 | 55.37532 | 44 ft | 0 kts | 207° |
| 2026-04-24 14:48 | 25.24289 | 55.37533 | 43 ft | 1 kts | 207° |
| 2026-04-24 14:48 | 25.24295 | 55.37536 | 43 ft | 1 kts | 207° |
| 2026-04-24 14:48 | 25.24302 | 55.37538 | 43 ft | 1 kts | 200° |
| 2026-04-24 14:48 | 25.24308 | 55.37540 | 42 ft | 1 kts | 193° |
| 2026-04-24 14:49 | 25.24315 | 55.37541 | 41 ft | 1 kts | 189° |
| 2026-04-24 14:49 | 25.24323 | 55.37542 | 42 ft | 1 kts | 182° |
| 2026-04-24 14:49 | 25.24331 | 55.37541 | 42 ft | 1 kts | 176° |
| 2026-04-24 14:49 | 25.24339 | 55.37539 | 42 ft | 1 kts | 169° |
| 2026-04-24 14:50 | 25.24347 | 55.37537 | 43 ft | 1 kts | 162° |
| 2026-04-24 14:50 | 25.24354 | 55.37533 | 42 ft | 1 kts | 156° |
| 2026-04-24 14:50 | 25.24363 | 55.37528 | 41 ft | 2 kts | 148° |
| 2026-04-24 14:50 | 25.24371 | 55.37521 | 40 ft | 1 kts | 142° |
| 2026-04-24 14:51 | 25.24379 | 55.37513 | 41 ft | 2 kts | 134° |
| 2026-04-24 14:51 | 25.24385 | 55.37504 | 39 ft | 2 kts | 126° |
| 2026-04-24 14:51 | 25.24386 | 55.37502 | 39 ft | 0 kts | 125° |
| 2026-04-24 14:55 | 25.24367 | 55.37535 | 43 ft | 7 kts | 121° |
| 2026-04-24 14:55 | 25.24331 | 55.37600 | 44 ft | 12 kts | 121° |
| 2026-04-24 14:55 | 25.24279 | 55.37696 | 46 ft | 17 kts | 121° |
| 2026-04-24 14:56 | 25.24268 | 55.37751 | 47 ft | 7 kts | 64° |
| 2026-04-24 14:56 | 25.24309 | 55.37801 | 47 ft | 10 kts | 38° |
| 2026-04-24 14:56 | 25.24327 | 55.37816 | 47 ft | 0 kts | 36° |
| 2026-04-24 14:59 | 25.24331 | 55.37820 | 47 ft | 0 kts | 36° |
| 2026-04-24 15:00 | 25.24345 | 55.37830 | 47 ft | 7 kts | 35° |
| 2026-04-24 15:00 | 25.24405 | 55.37876 | 48 ft | 13 kts | 33° |
| 2026-04-24 15:00 | 25.24484 | 55.37933 | 48 ft | 14 kts | 33° |
| 2026-04-24 15:00 | 25.24572 | 55.37997 | 46 ft | 17 kts | 33° |
| 2026-04-24 15:01 | 25.24618 | 55.38031 | 43 ft | 0 kts | 33° |
| 2026-04-24 15:01 | 25.24635 | 55.38043 | 45 ft | 6 kts | 33° |
| 2026-04-24 15:01 | 25.24684 | 55.38078 | 45 ft | 10 kts | 33° |
| 2026-04-24 15:01 | 25.24751 | 55.38092 | 46 ft | 11 kts | 333° |
| 2026-04-24 15:02 | 25.24791 | 55.38053 | 46 ft | 0 kts | 301° |
| 2026-04-24 15:02 | 25.24874 | 55.37904 | 45 ft | 69 kts | 302° |
| 2026-04-24 15:02 | 25.25294 | 55.37145 | 40 ft | 154 kts | 301° |
| 2026-04-24 15:03 | 25.25892 | 55.36049 | 494 ft | 169 kts | 301° |
| 2026-04-24 15:03 | 25.26483 | 55.34965 | 1191 ft | 164 kts | 305° |
| 2026-04-24 15:03 | 25.27083 | 55.33892 | 1773 ft | 167 kts | 304° |
| 2026-04-24 15:03 | 25.27730 | 55.32749 | 2122 ft | 184 kts | 304° |
| 2026-04-24 15:04 | 25.28433 | 55.31500 | 2334 ft | 199 kts | 303° |
| 2026-04-24 15:04 | 25.29109 | 55.30093 | 2407 ft | 222 kts | 287° |
| 2026-04-24 15:04 | 25.29095 | 55.28358 | 2955 ft | 233 kts | 253° |
| 2026-04-24 15:04 | 25.28405 | 55.26747 | 3844 ft | 230 kts | 244° |
| 2026-04-24 15:05 | 25.27701 | 55.25156 | 4683 ft | 231 kts | 246° |
| 2026-04-24 15:05 | 25.27018 | 55.23543 | 5492 ft | 234 kts | 246° |
| 2026-04-24 15:05 | 25.26560 | 55.22452 | 6033 ft | 236 kts | 246° |
| 2026-04-24 15:05 | 25.25627 | 55.20234 | 6831 ft | 240 kts | 246° |
| 2026-04-24 15:06 | 25.24918 | 55.18555 | 7088 ft | 243 kts | 246° |
| 2026-04-24 15:06 | 25.24237 | 55.16842 | 7763 ft | 243 kts | 252° |
| 2026-04-24 15:06 | 25.23846 | 55.15067 | 8661 ft | 242 kts | 262° |
| 2026-04-24 15:06 | 25.23646 | 55.13420 | 9145 ft | 256 kts | 262° |
| 2026-04-24 15:07 | 25.23438 | 55.11383 | 9496 ft | 278 kts | 266° |
| 2026-04-24 15:07 | 25.23343 | 55.09222 | 10150 ft | 284 kts | 266° |
| 2026-04-24 15:07 | 25.23255 | 55.06982 | 10509 ft | 303 kts | 266° |
| 2026-04-24 15:07 | 25.23165 | 55.04607 | 10693 ft | 323 kts | 267° |
| 2026-04-24 15:08 | 25.23071 | 55.02079 | 11093 ft | 335 kts | 267° |
| 2026-04-24 15:08 | 25.22975 | 54.99488 | 11625 ft | 339 kts | 267° |
| 2026-04-24 15:08 | 25.22877 | 54.96871 | 12152 ft | 342 kts | 267° |
| 2026-04-24 15:08 | 25.22777 | 54.94239 | 12715 ft | 344 kts | 267° |
| 2026-04-24 15:09 | 25.22675 | 54.91581 | 13264 ft | 347 kts | 267° |
| 2026-04-24 15:09 | 25.22572 | 54.88901 | 13809 ft | 350 kts | 267° |
| 2026-04-24 15:09 | 25.22468 | 54.86204 | 14315 ft | 352 kts | 267° |
| 2026-04-24 15:09 | 25.22362 | 54.83491 | 14790 ft | 355 kts | 267° |
| 2026-04-24 15:10 | 25.22255 | 54.80749 | 14984 ft | 358 kts | 267° |
| 2026-04-24 15:10 | 25.22148 | 54.78004 | 15048 ft | 358 kts | 267° |
| 2026-04-24 15:10 | 25.22040 | 54.75258 | 15267 ft | 359 kts | 267° |
| 2026-04-24 15:10 | 25.21932 | 54.72535 | 15737 ft | 359 kts | 267° |
| 2026-04-24 15:11 | 25.21822 | 54.69774 | 16295 ft | 361 kts | 267° |
| 2026-04-24 15:11 | 25.21710 | 54.66985 | 16861 ft | 364 kts | 268° |
| 2026-04-24 15:11 | 25.21597 | 54.64175 | 17459 ft | 367 kts | 268° |
| 2026-04-24 15:11 | 25.21483 | 54.61345 | 18047 ft | 369 kts | 268° |
| 2026-04-24 15:12 | 25.21369 | 54.58537 | 18571 ft | 371 kts | 268° |
| 2026-04-24 15:12 | 25.21408 | 54.52820 | 19629 ft | 374 kts | 276° |
| 2026-04-24 15:12 | 25.21886 | 54.49978 | 20180 ft | 377 kts | 283° |
| 2026-04-24 15:13 | 25.22603 | 54.47191 | 20728 ft | 378 kts | 284° |
| 2026-04-24 15:13 | 25.23311 | 54.44426 | 21282 ft | 378 kts | 283° |
| 2026-04-24 15:13 | 25.24018 | 54.41615 | 21816 ft | 380 kts | 283° |
| 2026-04-24 15:13 | 25.24731 | 54.38764 | 22013 ft | 389 kts | 283° |
| 2026-04-24 15:14 | 25.25454 | 54.35874 | 22042 ft | 389 kts | 283° |
| 2026-04-24 15:14 | 25.26177 | 54.32990 | 22041 ft | 388 kts | 283° |
| 2026-04-24 15:14 | 25.26897 | 54.30118 | 22111 ft | 387 kts | 283° |
| 2026-04-24 15:14 | 25.27611 | 54.27249 | 22472 ft | 387 kts | 283° |
| 2026-04-24 15:15 | 25.28312 | 54.24418 | 23021 ft | 387 kts | 283° |
| 2026-04-24 15:15 | 25.29023 | 54.21543 | 23588 ft | 388 kts | 283° |
| 2026-04-24 15:15 | 25.29737 | 54.18654 | 23918 ft | 393 kts | 283° |
| 2026-04-24 15:15 | 25.30464 | 54.15706 | 24023 ft | 400 kts | 283° |
| 2026-04-24 15:16 | 25.31196 | 54.12742 | 24044 ft | 400 kts | 282° |
| 2026-04-24 15:16 | 25.31869 | 54.09767 | 24041 ft | 398 kts | 281° |
| 2026-04-24 15:16 | 25.32487 | 54.06780 | 24045 ft | 398 kts | 280° |
| 2026-04-24 15:16 | 25.33095 | 54.03802 | 24046 ft | 397 kts | 280° |
| 2026-04-24 15:17 | 25.33711 | 54.00821 | 24048 ft | 397 kts | 281° |
| 2026-04-24 15:17 | 25.34334 | 53.97840 | 24046 ft | 397 kts | 281° |
| 2026-04-24 15:17 | 25.34961 | 53.94856 | 24048 ft | 397 kts | 281° |
| 2026-04-24 15:17 | 25.35587 | 53.91885 | 24051 ft | 397 kts | 281° |
| 2026-04-24 15:18 | 25.36205 | 53.88957 | 24046 ft | 397 kts | 281° |
| 2026-04-24 15:18 | 25.36831 | 53.85982 | 24042 ft | 397 kts | 281° |
| 2026-04-24 15:18 | 25.37458 | 53.83002 | 24041 ft | 396 kts | 281° |
| 2026-04-24 15:18 | 25.38083 | 53.80035 | 24039 ft | 396 kts | 281° |
| 2026-04-24 15:19 | 25.38709 | 53.77057 | 24053 ft | 396 kts | 281° |
| 2026-04-24 15:19 | 25.39334 | 53.74083 | 24045 ft | 396 kts | 281° |
| 2026-04-24 15:19 | 25.39956 | 53.71119 | 24044 ft | 395 kts | 281° |
| 2026-04-24 15:19 | 25.40577 | 53.68155 | 24055 ft | 395 kts | 281° |
| 2026-04-24 15:20 | 25.41195 | 53.65202 | 24051 ft | 395 kts | 281° |
| 2026-04-24 15:20 | 25.41817 | 53.62228 | 24055 ft | 395 kts | 281° |
| 2026-04-24 15:20 | 25.42429 | 53.59300 | 24046 ft | 395 kts | 281° |
| 2026-04-24 15:20 | 25.43047 | 53.56339 | 24054 ft | 395 kts | 281° |
| 2026-04-24 15:21 | 25.43664 | 53.53375 | 24065 ft | 395 kts | 281° |
| 2026-04-24 15:21 | 25.44279 | 53.50419 | 24060 ft | 395 kts | 281° |
| 2026-04-24 15:21 | 25.44894 | 53.47461 | 24056 ft | 395 kts | 281° |
| 2026-04-24 15:21 | 25.45509 | 53.44500 | 24057 ft | 394 kts | 281° |
| 2026-04-24 15:22 | 25.46121 | 53.41547 | 24057 ft | 394 kts | 281° |
| 2026-04-24 15:22 | 25.46735 | 53.38586 | 24051 ft | 394 kts | 281° |
| 2026-04-24 15:22 | 25.47348 | 53.35627 | 24067 ft | 394 kts | 281° |
| 2026-04-24 15:23 | 25.48571 | 53.29705 | 24069 ft | 395 kts | 281° |
| 2026-04-24 15:23 | 25.49786 | 53.23817 | 24061 ft | 395 kts | 281° |
| 2026-04-24 15:23 | 25.50395 | 53.20856 | 24062 ft | 395 kts | 281° |
| 2026-04-24 15:24 | 25.52224 | 53.11930 | 24065 ft | 396 kts | 281° |
| 2026-04-24 15:25 | 25.53235 | 53.06983 | 24067 ft | 397 kts | 281° |
| 2026-04-24 15:25 | 25.54659 | 53.00006 | 24065 ft | 397 kts | 281° |
| 2026-04-24 15:26 | 25.56487 | 52.91088 | 24074 ft | 398 kts | 283° |
| 2026-04-24 15:27 | 25.59057 | 52.82297 | 24072 ft | 399 kts | 286° |
| 2026-04-24 15:27 | 25.61629 | 52.73561 | 24098 ft | 399 kts | 286° |
| 2026-04-24 15:28 | 25.65059 | 52.61888 | 25803 ft | 398 kts | 287° |
| 2026-04-24 15:29 | 25.67914 | 52.56432 | 26083 ft | 424 kts | 302° |
| 2026-04-24 15:30 | 25.73182 | 52.48174 | 26082 ft | 442 kts | 302° |
| 2026-04-24 15:31 | 25.79682 | 52.38018 | 26086 ft | 439 kts | 302° |
| 2026-04-24 15:32 | 25.87359 | 52.26091 | 26093 ft | 438 kts | 302° |
| 2026-04-24 15:33 | 25.94645 | 52.15255 | 26092 ft | 442 kts | 313° |
| 2026-04-24 15:33 | 26.01825 | 52.08805 | 26093 ft | 444 kts | 317° |
| 2026-04-24 15:34 | 26.06682 | 52.04527 | 26092 ft | 444 kts | 317° |
| 2026-04-24 15:35 | 26.13957 | 51.98134 | 26092 ft | 444 kts | 317° |
| 2026-04-24 15:35 | 26.18818 | 51.93876 | 26093 ft | 444 kts | 317° |
| 2026-04-24 15:35 | 26.21012 | 51.91513 | 26097 ft | 438 kts | 306° |
| 2026-04-24 15:36 | 26.22698 | 51.88756 | 26099 ft | 433 kts | 298° |
| 2026-04-24 15:36 | 26.25803 | 51.82991 | 26093 ft | 433 kts | 297° |
| 2026-04-24 15:36 | 26.27363 | 51.80104 | 26094 ft | 433 kts | 297° |
| 2026-04-24 15:37 | 26.28848 | 51.77192 | 26093 ft | 432 kts | 294° |
| 2026-04-24 15:37 | 26.30185 | 51.74199 | 26097 ft | 431 kts | 292° |
| 2026-04-24 15:37 | 26.31048 | 51.72213 | 26097 ft | 431 kts | 292° |
| 2026-04-24 15:37 | 26.32797 | 51.68191 | 26096 ft | 431 kts | 292° |
| 2026-04-24 15:38 | 26.33661 | 51.66204 | 26095 ft | 431 kts | 292° |
| 2026-04-24 15:38 | 26.34975 | 51.63191 | 26098 ft | 431 kts | 292° |
| 2026-04-24 15:38 | 26.36713 | 51.59209 | 26097 ft | 431 kts | 292° |
| 2026-04-24 15:38 | 26.38029 | 51.56203 | 26098 ft | 431 kts | 292° |
| 2026-04-24 15:39 | 26.39345 | 51.53197 | 26096 ft | 431 kts | 292° |
| 2026-04-24 15:39 | 26.40239 | 51.51161 | 26096 ft | 431 kts | 292° |
| 2026-04-24 15:39 | 26.41556 | 51.48161 | 26097 ft | 431 kts | 292° |
| 2026-04-24 15:39 | 26.42883 | 51.45147 | 26097 ft | 431 kts | 293° |
| 2026-04-24 15:40 | 26.44187 | 51.42183 | 26096 ft | 431 kts | 292° |
| 2026-04-24 15:40 | 26.45511 | 51.39180 | 26097 ft | 431 kts | 292° |
| 2026-04-24 15:40 | 26.46829 | 51.36171 | 26079 ft | 431 kts | 292° |
| 2026-04-24 15:40 | 26.48096 | 51.33143 | 26095 ft | 429 kts | 288° |
| 2026-04-24 15:41 | 26.48865 | 51.29942 | 26093 ft | 426 kts | 276° |
| 2026-04-24 15:41 | 26.47587 | 51.20020 | 26094 ft | 423 kts | 254° |
| 2026-04-24 15:42 | 26.46814 | 51.16900 | 26095 ft | 423 kts | 255° |
| 2026-04-24 15:42 | 26.46088 | 51.13686 | 26052 ft | 417 kts | 256° |
| 2026-04-24 15:42 | 26.45450 | 51.10631 | 25783 ft | 404 kts | 257° |
| 2026-04-24 15:42 | 26.44848 | 51.07611 | 25192 ft | 394 kts | 257° |
| 2026-04-24 15:43 | 26.44270 | 51.04646 | 24660 ft | 387 kts | 257° |
| 2026-04-24 15:43 | 26.43702 | 51.01723 | 24097 ft | 384 kts | 257° |
| 2026-04-24 15:43 | 26.43136 | 50.98812 | 23536 ft | 383 kts | 257° |
| 2026-04-24 15:43 | 26.42570 | 50.95909 | 22873 ft | 380 kts | 257° |
| 2026-04-24 15:44 | 26.42013 | 50.93057 | 22208 ft | 372 kts | 257° |
| 2026-04-24 15:44 | 26.41465 | 50.90261 | 21544 ft | 365 kts | 257° |
| 2026-04-24 15:44 | 26.40928 | 50.87522 | 20905 ft | 358 kts | 257° |
| 2026-04-24 15:44 | 26.40407 | 50.84865 | 20289 ft | 352 kts | 257° |
| 2026-04-24 15:45 | 26.39886 | 50.82216 | 19664 ft | 346 kts | 257° |
| 2026-04-24 15:45 | 26.39374 | 50.79612 | 19060 ft | 341 kts | 257° |
| 2026-04-24 15:45 | 26.38868 | 50.77046 | 18474 ft | 336 kts | 257° |
| 2026-04-24 15:45 | 26.38370 | 50.74519 | 17845 ft | 331 kts | 256° |
| 2026-04-24 15:46 | 26.37877 | 50.72020 | 17169 ft | 326 kts | 256° |
| 2026-04-24 15:46 | 26.37391 | 50.69563 | 16518 ft | 323 kts | 256° |
| 2026-04-24 15:46 | 26.36915 | 50.67159 | 15886 ft | 319 kts | 256° |
| 2026-04-24 15:46 | 26.36439 | 50.64754 | 15260 ft | 316 kts | 257° |
| 2026-04-24 15:47 | 26.35966 | 50.62364 | 14690 ft | 313 kts | 257° |
| 2026-04-24 15:47 | 26.35499 | 50.60008 | 14176 ft | 307 kts | 256° |
| 2026-04-24 15:47 | 26.35041 | 50.57701 | 13669 ft | 303 kts | 257° |
| 2026-04-24 15:47 | 26.34590 | 50.55431 | 13111 ft | 299 kts | 257° |
| 2026-04-24 15:48 | 26.34142 | 50.53175 | 12551 ft | 295 kts | 257° |
| 2026-04-24 15:48 | 26.33699 | 50.50949 | 12008 ft | 291 kts | 257° |
| 2026-04-24 15:48 | 26.33267 | 50.48782 | 11479 ft | 288 kts | 257° |
| 2026-04-24 15:48 | 26.32836 | 50.46617 | 10964 ft | 285 kts | 257° |
| 2026-04-24 15:49 | 26.32407 | 50.44468 | 10446 ft | 282 kts | 257° |
| 2026-04-24 15:49 | 26.31988 | 50.42364 | 10120 ft | 272 kts | 257° |
| 2026-04-24 15:49 | 26.31586 | 50.40350 | 10011 ft | 260 kts | 256° |
| 2026-04-24 15:49 | 26.31209 | 50.38457 | 9983 ft | 241 kts | 256° |
| 2026-04-24 15:50 | 26.30850 | 50.36662 | 9837 ft | 235 kts | 256° |
| 2026-04-24 15:50 | 26.30492 | 50.34878 | 9388 ft | 237 kts | 256° |
| 2026-04-24 15:50 | 26.30138 | 50.33101 | 8841 ft | 239 kts | 258° |
| 2026-04-24 15:50 | 26.29968 | 50.31252 | 8313 ft | 241 kts | 267° |
| 2026-04-24 15:51 | 26.29903 | 50.29375 | 7776 ft | 243 kts | 266° |
| 2026-04-24 15:51 | 26.29822 | 50.27480 | 7253 ft | 245 kts | 266° |
| 2026-04-24 15:51 | 26.29733 | 50.25572 | 6735 ft | 248 kts | 266° |
| 2026-04-24 15:51 | 26.29673 | 50.24299 | 6401 ft | 249 kts | 266° |
| 2026-04-24 15:52 | 26.29582 | 50.22385 | 6067 ft | 242 kts | 267° |
| 2026-04-24 15:52 | 26.29495 | 50.20561 | 5969 ft | 227 kts | 267° |
| 2026-04-24 15:52 | 26.29388 | 50.18299 | 5977 ft | 218 kts | 267° |
| 2026-04-24 15:52 | 26.29335 | 50.17151 | 5969 ft | 219 kts | 267° |
| 2026-04-24 15:53 | 26.29254 | 50.15445 | 5972 ft | 222 kts | 267° |
| 2026-04-24 15:53 | 26.29174 | 50.13737 | 5977 ft | 220 kts | 267° |
| 2026-04-24 15:53 | 26.29095 | 50.12057 | 5984 ft | 212 kts | 267° |
| 2026-04-24 15:53 | 26.29017 | 50.10454 | 5964 ft | 201 kts | 267° |
| 2026-04-24 15:54 | 26.28942 | 50.08895 | 5684 ft | 202 kts | 268° |
| 2026-04-24 15:54 | 26.28872 | 50.07471 | 5277 ft | 202 kts | 268° |
| 2026-04-24 15:54 | 26.28798 | 50.05926 | 4818 ft | 198 kts | 269° |
| 2026-04-24 15:54 | 26.28720 | 50.04408 | 4365 ft | 196 kts | 269° |
| 2026-04-24 15:55 | 26.28715 | 50.04331 | 4335 ft | 196 kts | 268° |
| 2026-04-24 15:56 | 26.28665 | 50.03603 | 4126 ft | 205 kts | 268° |
| 2026-04-24 15:57 | 26.28535 | 50.02039 | 3669 ft | 199 kts | 268° |
| 2026-04-24 15:57 | 26.28402 | 50.00531 | 3231 ft | 197 kts | 269° |
| 2026-04-24 15:57 | 26.28271 | 49.98993 | 3017 ft | 198 kts | 269° |
| 2026-04-24 15:57 | 26.28150 | 49.97481 | 2981 ft | 199 kts | 269° |
| 2026-04-24 15:58 | 26.28026 | 49.95926 | 2983 ft | 199 kts | 269° |
| 2026-04-24 15:58 | 26.27907 | 49.94417 | 2988 ft | 199 kts | 269° |
| 2026-04-24 15:58 | 26.27784 | 49.92870 | 2991 ft | 198 kts | 269° |
| 2026-04-24 15:58 | 26.27661 | 49.91339 | 2992 ft | 200 kts | 269° |
| 2026-04-24 15:59 | 26.27536 | 49.89793 | 3007 ft | 200 kts | 269° |
| 2026-04-24 15:59 | 26.27413 | 49.88251 | 3004 ft | 198 kts | 269° |
| 2026-04-24 15:59 | 26.27354 | 49.86727 | 3021 ft | 194 kts | 281° |
| 2026-04-24 15:59 | 26.27890 | 49.85411 | 3008 ft | 187 kts | 312° |
| 2026-04-24 16:00 | 26.28916 | 49.84545 | 3007 ft | 185 kts | 332° |
| 2026-04-24 16:00 | 26.30095 | 49.84006 | 2999 ft | 185 kts | 341° |
| 2026-04-24 16:00 | 26.31325 | 49.83590 | 2812 ft | 180 kts | 344° |
| 2026-04-24 16:00 | 26.32492 | 49.83233 | 2574 ft | 170 kts | 344° |
| 2026-04-24 16:01 | 26.33621 | 49.82877 | 2356 ft | 167 kts | 345° |
| 2026-04-24 16:01 | 26.34748 | 49.82529 | 2123 ft | 167 kts | 345° |
| 2026-04-24 16:01 | 26.35856 | 49.82183 | 1907 ft | 165 kts | 346° |
| 2026-04-24 16:01 | 26.36971 | 49.81838 | 1695 ft | 167 kts | 346° |
| 2026-04-24 16:02 | 26.38081 | 49.81492 | 1479 ft | 168 kts | 345° |
| 2026-04-24 16:02 | 26.39199 | 49.81144 | 1262 ft | 166 kts | 346° |
| 2026-04-24 16:02 | 26.40325 | 49.80796 | 1029 ft | 168 kts | 345° |
| 2026-04-24 16:02 | 26.41441 | 49.80445 | 845 ft | 165 kts | 345° |
| 2026-04-24 16:03 | 26.42514 | 49.80114 | 651 ft | 156 kts | 345° |
| 2026-04-24 16:03 | 26.43527 | 49.79800 | 458 ft | 148 kts | 346° |
| 2026-04-24 16:03 | 26.44528 | 49.79488 | 284 ft | 152 kts | 345° |
| 2026-04-24 16:03 | 26.45538 | 49.79172 | 91 ft | 150 kts | 346° |
| 2026-04-24 16:04 | 26.46419 | 49.78894 | 66 ft | 107 kts | 345° |
| 2026-04-24 16:04 | 26.46997 | 49.78720 | 67 ft | 70 kts | 344° |
| 2026-04-24 16:04 | 26.47208 | 49.78653 | 65 ft | 0 kts | 344° |